Bangor — FGE4786 — position and weather

sailwx.info

Track history (hours):
 
Tides and Currents Weather Stations Pressure Air Temp Water Temp Dewpoint Dewpoint Depression Visibility Wind Speed Wind Dir Waves Ship Positions

Bangor

Last reported at 2017-Nov-19 15:30 UTC. Time now 2017-Nov-19 15:49 UTC.
Position N 47°29' W 003°07'.

Length 46 m; draft 2.8 m.

Type: Passenger vessel. MMSI: 227644930.

Date/timePositionNaut miles runAvg speedWind from/ knotsBaromVisibWave heightAir tempDewpointWater temp
2017-Nov-19 15:30N 47°29' W 003°07'3 5.3
2017-Nov-19 15:00N 47°26' W 003°08'5 4.4
2017-Nov-19 13:50N 47°21' W 003°09'410.9
2017-Nov-19 13:27N 47°25' W 003°08'4 8.6
2017-Nov-19 13:00N 47°29' W 003°07'0 0.0
2017-Nov-19 12:30N 47°29' W 003°07'3 6.5
2017-Nov-19 12:00N 47°25' W 003°08'5 3.8
2017-Nov-19 10:48N 47°21' W 003°09'310.4
2017-Nov-19 10:30N 47°24' W 003°08'5 9.6
2017-Nov-19 10:00N 47°29' W 003°07'0 0.0
2017-Nov-19 09:30N 47°29' W 003°07'510.1
2017-Nov-19 09:00N 47°24' W 003°08'3 2.7
2017-Nov-19 07:57N 47°21' W 003°09'510.8
2017-Nov-19 07:30N 47°26' W 003°08'3 6.1
2017-Nov-19 07:00N 47°29' W 003°07'3 6.4
2017-Nov-19 06:30N 47°25' W 003°08'5 8.0
2017-Nov-19 05:55N 47°21' W 003°09'0 0.0
2017-Nov-19 05:30N 47°21' W 003°09'0 0.0
2017-Nov-18 17:42N 47°21' W 003°09'0 0.2
2017-Nov-18 17:26N 47°21' W 003°09'410.6
2017-Nov-18 17:00N 47°25' W 003°08'3 6.9
2017-Nov-18 16:30N 47°29' W 003°07'0 0.0
2017-Nov-18 16:00N 47°29' W 003°07'3 5.9
2017-Nov-18 15:30N 47°26' W 003°08'5 7.9
2017-Nov-18 14:53N 47°21' W 003°09'0 0.1
2017-Nov-18 14:19N 47°21' W 003°09'411.0
2017-Nov-18 14:00N 47°24' W 003°08'4 8.9
2017-Nov-18 13:30N 47°29' W 003°07'0 0.0
2017-Nov-18 13:00N 47°29' W 003°07'0 0.0
2017-Nov-18 12:30N 47°29' W 003°07'3 6.0
2017-Nov-18 12:00N 47°26' W 003°08'5 6.4
2017-Nov-18 11:14N 47°21' W 003°09'0 0.0
2017-Nov-18 10:58N 47°21' W 003°09'3 5.8
2017-Nov-18 10:30N 47°23' W 003°08'510.3
2017-Nov-18 10:00N 47°29' W 003°07'0 0.0
2017-Nov-18 09:30N 47°29' W 003°07'5 9.9
2017-Nov-18 09:00N 47°24' W 003°08'3 5.8
2017-Nov-18 08:30N 47°21' W 003°09'0 0.1
2017-Nov-18 08:00N 47°21' W 003°09'510.6
2017-Nov-18 07:30N 47°26' W 003°08'2 5.0
2017-Nov-18 07:00N 47°29' W 003°07'0 0.4
2017-Nov-18 06:30N 47°28' W 003°07'611.9
2017-Nov-18 06:00N 47°23' W 003°08'2 2.1
2017-Nov-18 05:10N 47°21' W 003°09'0 0.0
2017-Nov-17 19:49N 47°21' W 003°09'0 0.1
2017-Nov-17 19:18N 47°21' W 003°09'3 9.8
2017-Nov-17 19:00N 47°24' W 003°08'5 9.9
2017-Nov-17 18:30N 47°29' W 003°07'0 0.0
2017-Nov-17 18:01N 47°29' W 003°07'611.4
2017-Nov-17 17:30N 47°23' W 003°08'2 3.3
2017-Nov-17 16:52N 47°21' W 003°09'410.9
2017-Nov-17 16:28N 47°25' W 003°08'4 7.9
2017-Nov-17 16:00N 47°29' W 003°07'0 0.0
2017-Nov-17 15:30N 47°29' W 003°07'3 6.0
2017-Nov-17 15:00N 47°26' W 003°08'5 4.1
2017-Nov-17 13:49N 47°21' W 003°09'410.7
2017-Nov-17 13:26N 47°25' W 003°08'4 9.0
2017-Nov-17 13:00N 47°29' W 003°07'0 0.0
2017-Nov-17 12:30N 47°29' W 003°07'4 7.7
2017-Nov-17 12:00N 47°25' W 003°08'4 3.2
2017-Nov-17 10:45N 47°21' W 003°09'411.0
2017-Nov-17 10:24N 47°25' W 003°08'410.2
2017-Nov-17 10:00N 47°29' W 003°07'0 0.0
2017-Nov-17 09:30N 47°29' W 003°07'510.3
2017-Nov-17 09:00N 47°24' W 003°08'3 2.8
2017-Nov-17 07:59N 47°21' W 003°09'510.8
2017-Nov-17 07:29N 47°26' W 003°08'3 5.3
2017-Nov-17 07:00N 47°29' W 003°07'0 0.4
2017-Nov-17 06:30N 47°29' W 003°07'612.2
2017-Nov-17 06:00N 47°22' W 003°08'2 2.5
2017-Nov-17 05:19N 47°21' W 003°09'0 0.2
2017-Nov-17 04:59N 47°21' W 003°09'0 0.0
2017-Nov-16 17:48N 47°21' W 003°09'0 0.1
2017-Nov-16 17:24N 47°21' W 003°09'4 9.4
2017-Nov-16 17:00N 47°24' W 003°08'4 8.4
2017-Nov-16 16:30N 47°29' W 003°07'0 0.0
2017-Nov-16 16:00N 47°29' W 003°07'3 6.8
2017-Nov-16 15:30N 47°25' W 003°08'5 8.5
2017-Nov-16 14:58N 47°21' W 003°09'0 0.0
2017-Nov-16 14:30N 47°21' W 003°09'4 7.6
2017-Nov-16 14:00N 47°24' W 003°08'4 8.3
2017-Nov-16 13:30N 47°29' W 003°07'0 0.0
2017-Nov-16 13:00N 47°29' W 003°07'0 0.0
2017-Nov-16 12:30N 47°29' W 003°07'3 5.8
2017-Nov-16 12:00N 47°26' W 003°08'5 9.6
2017-Nov-16 11:29N 47°21' W 003°09'0 0.0
2017-Nov-16 11:00N 47°21' W 003°09'4 6.1
2017-Nov-16 10:25N 47°24' W 003°08'410.4
2017-Nov-16 10:00N 47°29' W 003°07'0 0.0
2017-Nov-16 09:30N 47°29' W 003°07'510.8
2017-Nov-16 09:00N 47°23' W 003°08'3 4.4
2017-Nov-16 08:25N 47°21' W 003°09'0 0.0
2017-Nov-16 07:56N 47°21' W 003°09'512.9
2017-Nov-16 07:30N 47°26' W 003°08'2 4.9
2017-Nov-16 07:00N 47°29' W 003°07'0 0.0
2017-Nov-16 06:30N 47°29' W 003°07'611.9
2017-Nov-16 06:00N 47°23' W 003°08'2 3.9
2017-Nov-16 05:30N 47°21' W 003°09'0 0.1
2017-Nov-16 05:00N 47°21' W 003°09'1 0.1
2017-Nov-15 17:15N 47°21' W 003°08'312.1
2017-Nov-15 17:00N 47°24' W 003°08'4 8.6
2017-Nov-15 16:30N 47°29' W 003°07'0 0.0
2017-Nov-15 16:01N 47°29' W 003°07'3 6.3
2017-Nov-15 15:31N 47°25' W 003°08'5 8.5
2017-Nov-15 14:57N 47°21' W 003°09'0 0.0
2017-Nov-15 14:19N 47°21' W 003°09'311.0
2017-Nov-15 14:00N 47°24' W 003°08'4 9.0
2017-Nov-15 13:30N 47°29' W 003°07'0 0.0
2017-Nov-15 13:01N 47°29' W 003°07'0 0.0
2017-Nov-15 12:31N 47°29' W 003°07'3 5.9
2017-Nov-15 12:01N 47°26' W 003°08'5 4.0
2017-Nov-15 10:47N 47°21' W 003°09'310.6
2017-Nov-15 10:29N 47°24' W 003°08'510.0
2017-Nov-15 10:01N 47°29' W 003°07'0 0.0
2017-Nov-15 09:31N 47°29' W 003°07'611.3
2017-Nov-15 09:01N 47°23' W 003°08'2 3.4
2017-Nov-15 08:21N 47°21' W 003°09'0 0.0
2017-Nov-15 08:00N 47°21' W 003°09'510.2
2017-Nov-15 07:31N 47°26' W 003°08'3 5.6
2017-Nov-15 07:01N 47°29' W 003°07'0 0.2
2017-Nov-15 06:31N 47°29' W 003°07'612.2
2017-Nov-15 06:01N 47°23' W 003°08'2 2.1
2017-Nov-15 05:11N 47°21' W 003°09'0 0.0
2017-Nov-15 05:00N 47°21' W 003°09'0 0.0
2017-Nov-14 17:42N 47°21' W 003°09'0 0.1
2017-Nov-14 17:25N 47°21' W 003°09'410.4
2017-Nov-14 17:00N 47°25' W 003°08'4 7.1
2017-Nov-14 16:30N 47°29' W 003°07'0 0.0
2017-Nov-14 16:00N 47°29' W 003°07'3 6.2
2017-Nov-14 15:30N 47°25' W 003°08'5 4.3
2017-Nov-14 14:24N 47°21' W 003°09'411.0
2017-Nov-14 14:00N 47°25' W 003°08'4 7.1
2017-Nov-14 13:30N 47°29' W 003°07'0 0.0
2017-Nov-14 13:00N 47°29' W 003°07'0 0.0
2017-Nov-14 12:30N 47°29' W 003°07'3 5.9
2017-Nov-14 12:00N 47°26' W 003°08'5 3.9
2017-Nov-14 10:44N 47°21' W 003°09'310.5
2017-Nov-14 10:29N 47°23' W 003°08'510.9
2017-Nov-14 10:00N 47°29' W 003°07'0 0.0
2017-Nov-14 09:30N 47°29' W 003°07'510.5
2017-Nov-14 09:00N 47°23' W 003°08'3 5.4
2017-Nov-14 08:30N 47°21' W 003°09'0 0.0
2017-Nov-14 08:00N 47°21' W 003°09'5 9.9
2017-Nov-14 07:30N 47°26' W 003°08'3 5.9
2017-Nov-14 07:00N 47°29' W 003°07'0 0.1
2017-Nov-14 06:30N 47°29' W 003°07'612.1
2017-Nov-14 06:00N 47°23' W 003°08'2 1.9
2017-Nov-14 05:04N 47°21' W 003°09'0 0.3
2017-Nov-14 04:58N 47°21' W 003°09'0 0.0
2017-Nov-12 19:43N 47°21' W 003°09'0 0.4
2017-Nov-12 19:20N 47°21' W 003°09'411.5
2017-Nov-12 19:00N 47°25' W 003°08'4 8.2
2017-Nov-12 18:30N 47°29' W 003°07'1 1.7
2017-Nov-12 18:00N 47°28' W 003°07'510.8
2017-Nov-12 17:30N 47°22' W 003°08'2 2.1
2017-Nov-12 16:45N 47°21' W 003°09'2 9.6
2017-Nov-12 16:30N 47°23' W 003°08'611.1
2017-Nov-12 16:00N 47°29' W 003°07'0 0.0
2017-Nov-12 15:30N 47°29' W 003°07'3 5.6
2017-Nov-12 15:00N 47°26' W 003°08'5 4.0
2017-Nov-12 13:45N 47°21' W 003°09'310.2
2017-Nov-12 13:30N 47°23' W 003°08'510.7
2017-Nov-12 13:00N 47°29' W 003°07'0 0.0
2017-Nov-12 12:30N 47°29' W 003°07'3 6.0
2017-Nov-12 12:00N 47°26' W 003°08'5 3.7
2017-Nov-12 10:42N 47°21' W 003°09'410.9
2017-Nov-12 10:18N 47°25' W 003°08'311.7
2017-Nov-12 10:00N 47°29' W 003°07'0 0.1
2017-Nov-12 09:30N 47°29' W 003°07'5 9.3
2017-Nov-12 09:00N 47°24' W 003°08'3 3.0
2017-Nov-12 07:56N 47°21' W 003°09'510.9
2017-Nov-12 07:26N 47°26' W 003°08'3 5.8
2017-Nov-12 07:00N 47°29' W 003°07'3 6.1
2017-Nov-12 06:30N 47°26' W 003°08'5 4.4
2017-Nov-12 05:24N 47°21' W 003°09'0 0.0
2017-Nov-11 17:34N 47°21' W 003°09'0 0.1
2017-Nov-11 17:18N 47°21' W 003°09'410.7
2017-Nov-11 16:56N 47°25' W 003°08'4 9.2
2017-Nov-11 16:30N 47°29' W 003°07'0 0.0
2017-Nov-11 16:00N 47°29' W 003°07'3 6.2
2017-Nov-11 15:30N 47°26' W 003°08'5 4.1
2017-Nov-11 14:20N 47°21' W 003°09'310.2
2017-Nov-11 14:00N 47°24' W 003°09'4 8.8
2017-Nov-11 13:30N 47°29' W 003°07'0 0.0
2017-Nov-11 13:00N 47°29' W 003°07'0 0.0
2017-Nov-11 12:30N 47°29' W 003°07'3 5.5
2017-Nov-11 12:00N 47°26' W 003°08'5 4.1
2017-Nov-11 10:46N 47°21' W 003°09'310.1
2017-Nov-11 10:28N 47°24' W 003°08'510.6
2017-Nov-11 10:00N 47°29' W 003°07'0 0.0
2017-Nov-11 09:30N 47°29' W 003°07'510.1
2017-Nov-11 09:00N 47°23' W 003°08'3 2.6
2017-Nov-11 07:55N 47°21' W 003°09'410.7
2017-Nov-11 07:30N 47°25' W 003°08'3 6.9
2017-Nov-11 07:00N 47°29' W 003°07'0 0.5
2017-Nov-11 06:30N 47°28' W 003°07'611.4
2017-Nov-11 06:00N 47°23' W 003°08'2 2.4
2017-Nov-11 05:11N 47°21' W 003°09'0 0.1
2017-Nov-11 05:00N 47°21' W 003°09'0 0.0
2017-Nov-10 19:32N 47°21' W 003°09'0 0.1
2017-Nov-10 19:29N 47°21' W 003°09'4 6.0
2017-Nov-10 18:52N 47°24' W 003°08'411.6
2017-Nov-10 18:30N 47°29' W 003°07'0 0.3
2017-Nov-10 18:01N 47°28' W 003°07'611.4
2017-Nov-10 17:30N 47°23' W 003°08'2 2.9
2017-Nov-10 16:46N 47°21' W 003°09'310.3
2017-Nov-10 16:30N 47°24' W 003°08'510.2
2017-Nov-10 16:00N 47°29' W 003°07'0 0.0
2017-Nov-10 15:30N 47°29' W 003°07'3 6.0
2017-Nov-10 15:00N 47°26' W 003°08'5 3.8
2017-Nov-10 13:45N 47°21' W 003°09'2 9.5
2017-Nov-10 13:30N 47°23' W 003°08'611.1
2017-Nov-10 13:00N 47°29' W 003°07'0 0.0
2017-Nov-10 12:30N 47°29' W 003°07'3 5.6
2017-Nov-10 12:00N 47°26' W 003°08'5 4.0
2017-Nov-10 10:45N 47°21' W 003°09'210.0
2017-Nov-10 10:30N 47°23' W 003°08'511.0
2017-Nov-10 10:00N 47°29' W 003°07'0 0.1
2017-Nov-10 09:31N 47°29' W 003°07'611.4
2017-Nov-10 09:00N 47°23' W 003°08'2 2.0
2017-Nov-10 07:55N 47°21' W 003°09'511.0
2017-Nov-10 07:30N 47°25' W 003°08'3 6.7
2017-Nov-10 07:00N 47°29' W 003°07'1 1.1
2017-Nov-10 06:30N 47°28' W 003°07'611.5
2017-Nov-10 06:00N 47°22' W 003°08'2 1.8
2017-Nov-10 05:07N 47°21' W 003°09'0 0.0
2017-Nov-09 17:36N 47°21' W 003°09'0 0.1
2017-Nov-09 17:17N 47°21' W 003°09'511.3
2017-Nov-09 16:51N 47°26' W 003°08'3 8.4
2017-Nov-09 16:30N 47°29' W 003°07'0 0.0
2017-Nov-09 16:00N 47°29' W 003°07'3 5.3
2017-Nov-09 15:30N 47°26' W 003°08'  
Track history (hours):
 
Tides and Currents Weather Stations Pressure Air Temp Water Temp Dewpoint Dewpoint Depression Visibility Wind Speed Wind Dir Waves Ship Positions

Bangor

Last reported at 2017-Nov-19 15:30 UTC. Time now 2017-Nov-19 15:49 UTC.
Position N 47°29' W 003°07'.

Length 46 m; draft 2.8 m.

Type: Passenger vessel. MMSI: 227644930.

Date/timePositionNaut miles runAvg speedWind from/ knotsBaromVisibWave heightAir tempDewpointWater temp
2017-Nov-19 15:30N 47°29' W 003°07'3 5.3
2017-Nov-19 15:00N 47°26' W 003°08'5 4.4
2017-Nov-19 13:50N 47°21' W 003°09'410.9
2017-Nov-19 13:27N 47°25' W 003°08'4 8.6
2017-Nov-19 13:00N 47°29' W 003°07'0 0.0
2017-Nov-19 12:30N 47°29' W 003°07'3 6.5
2017-Nov-19 12:00N 47°25' W 003°08'5 3.8
2017-Nov-19 10:48N 47°21' W 003°09'310.4
2017-Nov-19 10:30N 47°24' W 003°08'5 9.6
2017-Nov-19 10:00N 47°29' W 003°07'0 0.0
2017-Nov-19 09:30N 47°29' W 003°07'510.1
2017-Nov-19 09:00N 47°24' W 003°08'3 2.7
2017-Nov-19 07:57N 47°21' W 003°09'510.8
2017-Nov-19 07:30N 47°26' W 003°08'3 6.1
2017-Nov-19 07:00N 47°29' W 003°07'3 6.4
2017-Nov-19 06:30N 47°25' W 003°08'5 8.0
2017-Nov-19 05:55N 47°21' W 003°09'0 0.0
2017-Nov-19 05:30N 47°21' W 003°09'0 0.0
2017-Nov-18 17:42N 47°21' W 003°09'0 0.2
2017-Nov-18 17:26N 47°21' W 003°09'410.6
2017-Nov-18 17:00N 47°25' W 003°08'3 6.9
2017-Nov-18 16:30N 47°29' W 003°07'0 0.0
2017-Nov-18 16:00N 47°29' W 003°07'3 5.9
2017-Nov-18 15:30N 47°26' W 003°08'5 7.9
2017-Nov-18 14:53N 47°21' W 003°09'0 0.1
2017-Nov-18 14:19N 47°21' W 003°09'411.0
2017-Nov-18 14:00N 47°24' W 003°08'4 8.9
2017-Nov-18 13:30N 47°29' W 003°07'0 0.0
2017-Nov-18 13:00N 47°29' W 003°07'0 0.0
2017-Nov-18 12:30N 47°29' W 003°07'3 6.0
2017-Nov-18 12:00N 47°26' W 003°08'5 6.4
2017-Nov-18 11:14N 47°21' W 003°09'0 0.0
2017-Nov-18 10:58N 47°21' W 003°09'3 5.8
2017-Nov-18 10:30N 47°23' W 003°08'510.3
2017-Nov-18 10:00N 47°29' W 003°07'0 0.0
2017-Nov-18 09:30N 47°29' W 003°07'5 9.9
2017-Nov-18 09:00N 47°24' W 003°08'3 5.8
2017-Nov-18 08:30N 47°21' W 003°09'0 0.1
2017-Nov-18 08:00N 47°21' W 003°09'510.6
2017-Nov-18 07:30N 47°26' W 003°08'2 5.0
2017-Nov-18 07:00N 47°29' W 003°07'0 0.4
2017-Nov-18 06:30N 47°28' W 003°07'611.9
2017-Nov-18 06:00N 47°23' W 003°08'2 2.1
2017-Nov-18 05:10N 47°21' W 003°09'0 0.0
2017-Nov-17 19:49N 47°21' W 003°09'0 0.1
2017-Nov-17 19:18N 47°21' W 003°09'3 9.8
2017-Nov-17 19:00N 47°24' W 003°08'5 9.9
2017-Nov-17 18:30N 47°29' W 003°07'0 0.0
2017-Nov-17 18:01N 47°29' W 003°07'611.4
2017-Nov-17 17:30N 47°23' W 003°08'2 3.3
2017-Nov-17 16:52N 47°21' W 003°09'410.9
2017-Nov-17 16:28N 47°25' W 003°08'4 7.9
2017-Nov-17 16:00N 47°29' W 003°07'0 0.0
2017-Nov-17 15:30N 47°29' W 003°07'3 6.0
2017-Nov-17 15:00N 47°26' W 003°08'5 4.1
2017-Nov-17 13:49N 47°21' W 003°09'410.7
2017-Nov-17 13:26N 47°25' W 003°08'4 9.0
2017-Nov-17 13:00N 47°29' W 003°07'0 0.0
2017-Nov-17 12:30N 47°29' W 003°07'4 7.7
2017-Nov-17 12:00N 47°25' W 003°08'4 3.2
2017-Nov-17 10:45N 47°21' W 003°09'411.0
2017-Nov-17 10:24N 47°25' W 003°08'410.2
2017-Nov-17 10:00N 47°29' W 003°07'0 0.0
2017-Nov-17 09:30N 47°29' W 003°07'510.3
2017-Nov-17 09:00N 47°24' W 003°08'3 2.8
2017-Nov-17 07:59N 47°21' W 003°09'510.8
2017-Nov-17 07:29N 47°26' W 003°08'3 5.3
2017-Nov-17 07:00N 47°29' W 003°07'0 0.4
2017-Nov-17 06:30N 47°29' W 003°07'612.2
2017-Nov-17 06:00N 47°22' W 003°08'2 2.5
2017-Nov-17 05:19N 47°21' W 003°09'0 0.2
2017-Nov-17 04:59N 47°21' W 003°09'0 0.0
2017-Nov-16 17:48N 47°21' W 003°09'0 0.1
2017-Nov-16 17:24N 47°21' W 003°09'4 9.4
2017-Nov-16 17:00N 47°24' W 003°08'4 8.4
2017-Nov-16 16:30N 47°29' W 003°07'0 0.0
2017-Nov-16 16:00N 47°29' W 003°07'3 6.8
2017-Nov-16 15:30N 47°25' W 003°08'5 8.5
2017-Nov-16 14:58N 47°21' W 003°09'0 0.0
2017-Nov-16 14:30N 47°21' W 003°09'4 7.6
2017-Nov-16 14:00N 47°24' W 003°08'4 8.3
2017-Nov-16 13:30N 47°29' W 003°07'0 0.0
2017-Nov-16 13:00N 47°29' W 003°07'0 0.0
2017-Nov-16 12:30N 47°29' W 003°07'3 5.8
2017-Nov-16 12:00N 47°26' W 003°08'5 9.6
2017-Nov-16 11:29N 47°21' W 003°09'0 0.0
2017-Nov-16 11:00N 47°21' W 003°09'4 6.1
2017-Nov-16 10:25N 47°24' W 003°08'410.4
2017-Nov-16 10:00N 47°29' W 003°07'0 0.0
2017-Nov-16 09:30N 47°29' W 003°07'510.8
2017-Nov-16 09:00N 47°23' W 003°08'3 4.4
2017-Nov-16 08:25N 47°21' W 003°09'0 0.0
2017-Nov-16 07:56N 47°21' W 003°09'512.9
2017-Nov-16 07:30N 47°26' W 003°08'2 4.9
2017-Nov-16 07:00N 47°29' W 003°07'0 0.0
2017-Nov-16 06:30N 47°29' W 003°07'611.9
2017-Nov-16 06:00N 47°23' W 003°08'2 3.9
2017-Nov-16 05:30N 47°21' W 003°09'0 0.1
2017-Nov-16 05:00N 47°21' W 003°09'1 0.1
2017-Nov-15 17:15N 47°21' W 003°08'312.1
2017-Nov-15 17:00N 47°24' W 003°08'4 8.6
2017-Nov-15 16:30N 47°29' W 003°07'0 0.0
2017-Nov-15 16:01N 47°29' W 003°07'3 6.3
2017-Nov-15 15:31N 47°25' W 003°08'5 8.5
2017-Nov-15 14:57N 47°21' W 003°09'0 0.0
2017-Nov-15 14:19N 47°21' W 003°09'311.0
2017-Nov-15 14:00N 47°24' W 003°08'4 9.0
2017-Nov-15 13:30N 47°29' W 003°07'0 0.0
2017-Nov-15 13:01N 47°29' W 003°07'0 0.0
2017-Nov-15 12:31N 47°29' W 003°07'3 5.9
2017-Nov-15 12:01N 47°26' W 003°08'5 4.0
2017-Nov-15 10:47N 47°21' W 003°09'310.6
2017-Nov-15 10:29N 47°24' W 003°08'510.0
2017-Nov-15 10:01N 47°29' W 003°07'0 0.0
2017-Nov-15 09:31N 47°29' W 003°07'611.3
2017-Nov-15 09:01N 47°23' W 003°08'2 3.4
2017-Nov-15 08:21N 47°21' W 003°09'0 0.0
2017-Nov-15 08:00N 47°21' W 003°09'510.2
2017-Nov-15 07:31N 47°26' W 003°08'3 5.6
2017-Nov-15 07:01N 47°29' W 003°07'0 0.2
2017-Nov-15 06:31N 47°29' W 003°07'612.2
2017-Nov-15 06:01N 47°23' W 003°08'2 2.1
2017-Nov-15 05:11N 47°21' W 003°09'0 0.0
2017-Nov-15 05:00N 47°21' W 003°09'0 0.0
2017-Nov-14 17:42N 47°21' W 003°09'0 0.1
2017-Nov-14 17:25N 47°21' W 003°09'410.4
2017-Nov-14 17:00N 47°25' W 003°08'4 7.1
2017-Nov-14 16:30N 47°29' W 003°07'0 0.0
2017-Nov-14 16:00N 47°29' W 003°07'3 6.2
2017-Nov-14 15:30N 47°25' W 003°08'5 4.3
2017-Nov-14 14:24N 47°21' W 003°09'411.0
2017-Nov-14 14:00N 47°25' W 003°08'4 7.1
2017-Nov-14 13:30N 47°29' W 003°07'0 0.0
2017-Nov-14 13:00N 47°29' W 003°07'0 0.0
2017-Nov-14 12:30N 47°29' W 003°07'3 5.9
2017-Nov-14 12:00N 47°26' W 003°08'5 3.9
2017-Nov-14 10:44N 47°21' W 003°09'310.5
2017-Nov-14 10:29N 47°23' W 003°08'510.9
2017-Nov-14 10:00N 47°29' W 003°07'0 0.0
2017-Nov-14 09:30N 47°29' W 003°07'510.5
2017-Nov-14 09:00N 47°23' W 003°08'3 5.4
2017-Nov-14 08:30N 47°21' W 003°09'0 0.0
2017-Nov-14 08:00N 47°21' W 003°09'5 9.9
2017-Nov-14 07:30N 47°26' W 003°08'3 5.9
2017-Nov-14 07:00N 47°29' W 003°07'0 0.1
2017-Nov-14 06:30N 47°29' W 003°07'612.1
2017-Nov-14 06:00N 47°23' W 003°08'2 1.9
2017-Nov-14 05:04N 47°21' W 003°09'0 0.3
2017-Nov-14 04:58N 47°21' W 003°09'0 0.0
2017-Nov-12 19:43N 47°21' W 003°09'0 0.4
2017-Nov-12 19:20N 47°21' W 003°09'411.5
2017-Nov-12 19:00N 47°25' W 003°08'4 8.2
2017-Nov-12 18:30N 47°29' W 003°07'1 1.7
2017-Nov-12 18:00N 47°28' W 003°07'510.8
2017-Nov-12 17:30N 47°22' W 003°08'2 2.1
2017-Nov-12 16:45N 47°21' W 003°09'2 9.6
2017-Nov-12 16:30N 47°23' W 003°08'611.1
2017-Nov-12 16:00N 47°29' W 003°07'0 0.0
2017-Nov-12 15:30N 47°29' W 003°07'3 5.6
2017-Nov-12 15:00N 47°26' W 003°08'5 4.0
2017-Nov-12 13:45N 47°21' W 003°09'310.2
2017-Nov-12 13:30N 47°23' W 003°08'510.7
2017-Nov-12 13:00N 47°29' W 003°07'0 0.0
2017-Nov-12 12:30N 47°29' W 003°07'3 6.0
2017-Nov-12 12:00N 47°26' W 003°08'5 3.7
2017-Nov-12 10:42N 47°21' W 003°09'410.9
2017-Nov-12 10:18N 47°25' W 003°08'311.7
2017-Nov-12 10:00N 47°29' W 003°07'0 0.1
2017-Nov-12 09:30N 47°29' W 003°07'5 9.3
2017-Nov-12 09:00N 47°24' W 003°08'3 3.0
2017-Nov-12 07:56N 47°21' W 003°09'510.9
2017-Nov-12 07:26N 47°26' W 003°08'3 5.8
2017-Nov-12 07:00N 47°29' W 003°07'3 6.1
2017-Nov-12 06:30N 47°26' W 003°08'5 4.4
2017-Nov-12 05:24N 47°21' W 003°09'0 0.0
2017-Nov-11 17:34N 47°21' W 003°09'0 0.1
2017-Nov-11 17:18N 47°21' W 003°09'410.7
2017-Nov-11 16:56N 47°25' W 003°08'4 9.2
2017-Nov-11 16:30N 47°29' W 003°07'0 0.0
2017-Nov-11 16:00N 47°29' W 003°07'3 6.2
2017-Nov-11 15:30N 47°26' W 003°08'5 4.1
2017-Nov-11 14:20N 47°21' W 003°09'310.2
2017-Nov-11 14:00N 47°24' W 003°09'4 8.8
2017-Nov-11 13:30N 47°29' W 003°07'0 0.0
2017-Nov-11 13:00N 47°29' W 003°07'0 0.0
2017-Nov-11 12:30N 47°29' W 003°07'3 5.5
2017-Nov-11 12:00N 47°26' W 003°08'5 4.1
2017-Nov-11 10:46N 47°21' W 003°09'310.1
2017-Nov-11 10:28N 47°24' W 003°08'510.6
2017-Nov-11 10:00N 47°29' W 003°07'0 0.0
2017-Nov-11 09:30N 47°29' W 003°07'510.1
2017-Nov-11 09:00N 47°23' W 003°08'3 2.6
2017-Nov-11 07:55N 47°21' W 003°09'410.7
2017-Nov-11 07:30N 47°25' W 003°08'3 6.9
2017-Nov-11 07:00N 47°29' W 003°07'0 0.5
2017-Nov-11 06:30N 47°28' W 003°07'611.4
2017-Nov-11 06:00N 47°23' W 003°08'2 2.4
2017-Nov-11 05:11N 47°21' W 003°09'0 0.1
2017-Nov-11 05:00N 47°21' W 003°09'0 0.0
2017-Nov-10 19:32N 47°21' W 003°09'0 0.1
2017-Nov-10 19:29N 47°21' W 003°09'4 6.0
2017-Nov-10 18:52N 47°24' W 003°08'411.6
2017-Nov-10 18:30N 47°29' W 003°07'0 0.3
2017-Nov-10 18:01N 47°28' W 003°07'611.4
2017-Nov-10 17:30N 47°23' W 003°08'2 2.9
2017-Nov-10 16:46N 47°21' W 003°09'310.3
2017-Nov-10 16:30N 47°24' W 003°08'510.2
2017-Nov-10 16:00N 47°29' W 003°07'0 0.0
2017-Nov-10 15:30N 47°29' W 003°07'3 6.0
2017-Nov-10 15:00N 47°26' W 003°08'5 3.8
2017-Nov-10 13:45N 47°21' W 003°09'2 9.5
2017-Nov-10 13:30N 47°23' W 003°08'611.1
2017-Nov-10 13:00N 47°29' W 003°07'0 0.0
2017-Nov-10 12:30N 47°29' W 003°07'3 5.6
2017-Nov-10 12:00N 47°26' W 003°08'5 4.0
2017-Nov-10 10:45N 47°21' W 003°09'210.0
2017-Nov-10 10:30N 47°23' W 003°08'511.0
2017-Nov-10 10:00N 47°29' W 003°07'0 0.1
2017-Nov-10 09:31N 47°29' W 003°07'611.4
2017-Nov-10 09:00N 47°23' W 003°08'2 2.0
2017-Nov-10 07:55N 47°21' W 003°09'511.0
2017-Nov-10 07:30N 47°25' W 003°08'3 6.7
2017-Nov-10 07:00N 47°29' W 003°07'1 1.1
2017-Nov-10 06:30N 47°28' W 003°07'611.5
2017-Nov-10 06:00N 47°22' W 003°08'2 1.8
2017-Nov-10 05:07N 47°21' W 003°09'0 0.0
2017-Nov-09 17:36N 47°21' W 003°09'0 0.1
2017-Nov-09 17:17N 47°21' W 003°09'511.3
2017-Nov-09 16:51N 47°26' W 003°08'3 8.4
2017-Nov-09 16:30N 47°29' W 003°07'0 0.0
2017-Nov-09 16:00N 47°29' W 003°07'3 5.3
2017-Nov-09 15:30N 47°26' W 003°08'  

Dump ship's entire track history